Latest Weather Observations for Warracknabeal Airport

IDV60801

Issued at 5:52 pm EST Saturday 22 September 2018 (issued every 10 minutes, with the page automatically refreshed every 10 minutes)

About weather observations | Map of weather stations | Latest weather observations for VIC | Other Formats
Station Details ID: 078018 Name: WARRACKNABEAL AIRPORT Lat: -36.32 Lon: 142.42 Height: 118.3 m
Data from the previous 72 hours. | See also: Recent months for locations in Victoria
Date/Time
EST
Temp
°C
App
Temp
°C
Dew
Point
°C
Rel
Hum
%
Delta-T
°C
Wind Press
QNH
hPa
Press
MSL
hPa
Rain since
9am
mm
Dir  Spd
km/h
Gust
km/h
Spd
kts
Gust
kts
22/05:30pm 20.1 - - - - SW 24 33 13 18 1025.0 1025.1 0.0
22/05:00pm 21.7 - - - - W 26 35 14 19 1024.7 1024.8 0.0
22/04:30pm 22.0 - - - - W 33 43 18 23 1024.5 1024.6 0.0
22/04:00pm 22.2 - - - - WSW 30 46 16 25 1024.4 1024.5 0.0
22/03:30pm 22.4 - - - - WSW 32 41 17 22 1024.5 1024.6 0.0
22/03:00pm 22.6 - - - - WSW 32 46 17 25 1024.6 1024.7 0.0
22/02:54pm 22.6 - - - - W 28 46 15 25 1024.6 1024.7 0.0
22/02:30pm 22.5 - - - - W 28 43 15 23 1024.8 1024.9 0.0
22/02:00pm 22.6 - - - - W 28 39 15 21 1025.0 1025.1 0.0
22/01:30pm 22.3 - - - - W 24 35 13 19 1025.5 1025.7 0.0
22/01:00pm 22.1 - - - - W 22 37 12 20 1026.2 1026.3 0.0
22/12:30pm 21.0 - - - - WSW 24 30 13 16 1026.6 1026.7 0.0
22/12:00pm 21.2 - - - - W 19 39 10 21 1027.0 1027.1 0.0
22/11:30am 20.1 - - - - W 20 32 11 17 1027.3 1027.4 0.0
22/11:00am 19.1 - - - - W 20 30 11 16 1027.5 1027.6 0.0
22/10:30am 18.9 - - - - WNW 15 22 8 12 1027.8 1027.9 0.0
22/10:00am 17.0 - - - - WNW 9 17 5 9 1028.1 1028.2 0.0
22/09:30am 15.5 - - - - SW 9 11 5 6 1028.0 1028.1 0.0
22/09:00am 14.2 - - - - SW 2 6 1 3 1028.1 1028.2 0.0
22/08:30am 11.1 - - - - SW 4 7 2 4 1027.8 1027.9 0.0
22/08:00am 7.8 - - - - CALM 0 0 0 0 1027.7 1027.8 0.0
22/07:30am 4.7 - - - - CALM 0 0 0 0 1027.5 1027.6 0.0
22/07:00am 1.8 - - - - CALM 0 0 0 0 1027.4 1027.5 0.0
22/06:30am 1.3 - - - - CALM 0 0 0 0 1027.3 1027.4 0.0
22/06:00am 1.3 - - - - SW 6 7 3 4 1027.1 1027.2 0.0
22/05:30am 1.4 - - - - SW 2 7 1 4 1026.8 1026.9 0.0
22/05:00am 2.1 - - - - SW 4 7 2 4 1026.6 1026.7 0.0
22/04:30am 2.4 - - - - SW 11 13 6 7 1026.3 1026.4 0.0
22/04:00am 2.5 - - - - SW 11 11 6 6 1026.1 1026.2 0.0
22/03:30am 3.2 - - - - SW 7 9 4 5 1026.1 1026.2 0.0
22/03:00am 2.3 - - - - CALM 0 0 0 0 1026.2 1026.3 0.0
22/02:30am 3.4 - - - - CALM 0 0 0 0 1026.5 1026.6 0.0
22/02:00am 4.4 - - - - SW 4 6 2 3 1026.7 1026.8 0.0
22/01:30am 4.2 - - - - CALM 0 0 0 0 1027.0 1027.1 0.0
22/01:00am 6.4 - - - - SW 7 9 4 5 1027.1 1027.2 0.0
22/12:30am 6.5 - - - - SW 7 9 4 5 1027.1 1027.2 0.0
22/12:00am 5.8 - - - - SW 9 9 5 5 1027.2 1027.3 0.0
 
Date/Time
EST
Temp
°C
App
Temp
°C
Dew
Point
°C
Rel
Hum
%
Delta-T
°C
Wind Press
QNH
hPa
Press
MSL
hPa
Rain since
9am
mm
Dir  Spd
km/h
Gust
km/h
Spd
kts
Gust
kts
21/11:30pm 6.6 - - - - SW 9 9 5 5 1027.4 1027.5 0.0
21/11:00pm 7.6 - - - - SW 13 15 7 8 1027.5 1027.6 0.0
21/10:30pm 8.6 - - - - SW 13 17 7 9 1027.3 1027.4 0.0
21/10:00pm 8.7 - - - - SW 13 15 7 8 1027.3 1027.4 0.0
21/09:30pm 10.1 - - - - SW 15 17 8 9 1027.3 1027.4 0.0
21/09:00pm 10.2 - - - - SW 15 19 8 10 1027.4 1027.5 0.0
21/08:30pm 9.5 - - - - SSW 15 17 8 9 1027.3 1027.4 0.0
21/08:00pm 10.5 - - - - SW 13 17 7 9 1027.1 1027.2 0.0
21/07:30pm 12.2 - - - - WSW 13 15 7 8 1026.6 1026.7 0.0
21/07:00pm 12.8 - - - - WSW 11 15 6 8 1026.2 1026.3 0.0
21/06:30pm 14.5 - - - - WSW 13 17 7 9 1026.0 1026.1 0.0
21/06:00pm 16.7 - - - - WSW 17 22 9 12 1025.7 1025.9 0.0
21/05:30pm 17.9 - - - - WSW 19 24 10 13 1025.4 1025.6 0.0
21/05:00pm 18.7 - - - - WSW 19 28 10 15 1025.3 1025.5 0.0
21/04:30pm 19.2 - - - - WSW 22 33 12 18 1025.4 1025.6 0.0
21/04:00pm 19.8 - - - - W 19 30 10 16 1025.3 1025.5 0.0
21/03:30pm 19.6 - - - - WSW 19 28 10 15 1025.3 1025.5 0.0
21/03:00pm 19.5 - - - - SW 17 24 9 13 1025.4 1025.6 0.0
21/02:30pm 19.4 - - - - W 17 26 9 14 1025.9 1026.0 0.0
21/02:00pm 18.3 - - - - WSW 19 33 10 18 1026.4 1026.5 0.0
21/01:30pm 18.4 - - - - WSW 17 35 9 19 1026.9 1027.0 0.0
21/01:00pm 17.9 - - - - WSW 20 32 11 17 1027.2 1027.3 0.0
21/12:30pm 18.0 - - - - SW 20 32 11 17 1027.5 1027.6 0.0
21/12:00pm 17.2 - - - - WSW 19 28 10 15 1027.8 1027.9 0.0
21/11:30am 16.8 - - - - W 13 26 7 14 1027.9 1028.0 0.0
21/11:00am 16.4 - - - - W 17 22 9 12 1028.1 1028.2 0.0
21/10:30am 15.6 - - - - WSW 11 20 6 11 1028.1 1028.2 0.0
21/10:00am 14.5 - - - - SW 13 24 7 13 1028.2 1028.3 0.0
21/09:30am 13.9 - - - - WSW 15 22 8 12 1028.3 1028.4 0.0
21/09:00am 13.3 - - - - WSW 11 15 6 8 1028.2 1028.3 0.0
21/08:30am 11.8 - - - - WSW 13 17 7 9 1028.1 1028.2 0.0
21/08:00am 11.2 - - - - WSW 13 15 7 8 1027.8 1027.9 0.0
21/07:30am 11.1 - - - - WSW 11 15 6 8 1027.5 1027.6 0.0
21/07:00am 10.7 - - - - WSW 11 17 6 9 1027.0 1027.1 0.0
21/06:30am 10.0 - - - - WSW 4 7 2 4 1026.8 1026.9 0.0
21/06:00am 10.2 - - - - WSW 11 15 6 8 1026.6 1026.7 0.0
21/05:30am 10.1 - - - - WSW 11 13 6 7 1026.4 1026.5 0.0
21/05:00am 10.2 - - - - WSW 15 19 8 10 1026.2 1026.3 0.0
21/04:30am 10.2 - - - - WSW 15 20 8 11 1026.0 1026.1 0.0
21/04:00am 10.2 - - - - WSW 11 15 6 8 1025.7 1025.9 0.0
21/03:30am 10.4 - - - - WSW 13 20 7 11 1025.7 1025.9 0.0
21/03:00am 10.5 - - - - SW 19 28 10 15 1025.6 1025.8 0.0
21/02:30am 10.7 - - - - SW 19 26 10 14 1025.7 1025.9 0.0
21/02:00am 10.8 - - - - SW 17 22 9 12 1026.0 1026.1 0.0
21/01:30am 10.9 - - - - SW 15 20 8 11 1026.1 1026.2 0.0
21/01:00am 10.9 - - - - SW 13 17 7 9 1026.0 1026.1 0.0
21/12:30am 10.5 - - - - WSW 13 20 7 11 1026.0 1026.1 0.0
21/12:00am 10.3 - - - - WSW 13 19 7 10 1025.7 1025.9 0.0
 
Date/Time
EST
Temp
°C
App
Temp
°C
Dew
Point
°C
Rel
Hum
%
Delta-T
°C
Wind Press
QNH
hPa
Press
MSL
hPa
Rain since
9am
mm
Dir  Spd
km/h
Gust
km/h
Spd
kts
Gust
kts
20/11:30pm 8.5 - - - - WSW 17 19 9 10 1025.6 1025.8 0.0
20/11:00pm 8.5 - - - - WSW 13 17 7 9 1025.6 1025.8 0.0
20/10:30pm 9.2 - - - - WSW 17 20 9 11 1025.5 1025.7 0.0
20/10:00pm 9.9 - - - - WSW 17 22 9 12 1025.4 1025.6 0.0
20/09:30pm 10.8 - - - - WSW 20 26 11 14 1025.1 1025.2 0.0
20/09:00pm 10.3 - - - - WSW 13 20 7 11 1024.8 1024.9 0.0
20/08:30pm 10.0 - - - - WSW 13 17 7 9 1024.6 1024.7 0.0
20/08:00pm 9.5 - - - - WSW 9 11 5 6 1024.3 1024.4 0.0
20/07:30pm 11.1 - - - - WSW 13 15 7 8 1024.0 1024.1 0.0
20/07:00pm 13.0 - - - - WSW 15 22 8 12 1023.5 1023.6 0.0
20/06:30pm 14.4 - - - - WSW 22 32 12 17 1023.1 1023.2 0.0
20/06:00pm 15.6 - - - - WSW 22 32 12 17 1022.4 1022.5 0.0
20/05:30pm 15.7 - - - - WSW 15 20 8 11 1022.0 1022.1 0.0
20/05:00pm 15.7 - - - - W 19 26 10 14 1021.8 1021.9 0.0
20/04:30pm 16.6 - - - - W 22 30 12 16 1021.5 1021.6 0.0
20/04:00pm 18.6 - - - - W 17 28 9 15 1021.4 1021.5 0.0
20/03:30pm 17.4 - - - - W 24 33 13 18 1021.5 1021.6 0.0
20/03:00pm 17.7 - - - - WNW 17 26 9 14 1021.5 1021.6 0.0
20/02:30pm 16.6 - - - - W 20 30 11 16 1021.7 1021.8 0.0
20/02:00pm 16.6 - - - - WNW 17 28 9 15 1022.0 1022.1 0.0
20/01:30pm 16.0 - - - - W 19 28 10 15 1022.2 1022.3 0.0
20/01:00pm 16.0 - - - - W 17 28 9 15 1022.4 1022.5 0.0
20/12:30pm 15.9 - - - - WSW 19 28 10 15 1022.6 1022.7 0.0
20/12:00pm 15.5 - - - - W 20 28 11 15 1022.9 1023.0 0.0
20/11:30am 14.4 - - - - WNW 19 26 10 14 1022.8 1022.9 0.0
20/11:00am 14.1 - - - - W 19 26 10 14 1023.0 1023.1 0.0
20/10:30am 13.8 - - - - WNW 19 26 10 14 1022.9 1023.0 0.0
20/10:00am 13.1 - - - - W 15 26 8 14 1022.7 1022.8 0.0
20/09:30am 12.3 - - - - NW 13 19 7 10 1022.5 1022.6 0.0
20/09:00am 10.4 - - - - W 13 19 7 10 1022.2 1022.3 0.0
20/08:30am 7.4 - - - - WSW 11 15 6 8 1022.3 1022.4 0.0
20/08:00am 4.9 - - - - WSW 4 9 2 5 1022.2 1022.3 0.0
20/07:30am 1.8 - - - - CALM 0 0 0 0 1021.8 1021.9 0.0
20/07:00am -1.4 - - - - CALM 0 0 0 0 1021.3 1021.4 0.0
20/06:30am -1.1 - - - - CALM 0 0 0 0 1021.0 1021.1 0.0
20/06:00am -1.9 - - - - CALM 0 0 0 0 1020.6 1020.7 0.0
20/05:30am 0.4 - - - - WSW 9 11 5 6 1020.2 1020.3 0.0
20/05:00am 1.0 - - - - WSW 7 7 4 4 1020.0 1020.1 0.0
20/04:30am 0.3 - - - - WSW 6 9 3 5 1019.6 1019.7 0.0
20/04:00am 0.7 - - - - WSW 11 13 6 7 1019.5 1019.6 0.0
20/03:30am 1.6 - - - - WSW 11 13 6 7 1019.5 1019.6 0.0
20/03:00am 1.7 - - - - WSW 11 13 6 7 1019.6 1019.7 0.0
20/02:30am 2.1 - - - - WSW 11 13 6 7 1019.6 1019.7 0.0
20/02:00am 2.4 - - - - WSW 13 15 7 8 1019.8 1019.9 0.0
20/01:30am 3.9 - - - - WSW 13 15 7 8 1019.8 1019.9 0.0
20/01:00am 3.8 - - - - WSW 13 15 7 8 1019.7 1019.8 0.0
20/12:30am 4.1 - - - - WSW 15 19 8 10 1019.5 1019.6 0.0
20/12:00am 2.8 - - - - W 11 11 6 6 1019.4 1019.5 0.0
 
Date/Time
EST
Temp
°C
App
Temp
°C
Dew
Point
°C
Rel
Hum
%
Delta-T
°C
Wind Press
QNH
hPa
Press
MSL
hPa
Rain since
9am
mm
Dir  Spd
km/h
Gust
km/h
Spd
kts
Gust
kts
19/11:30pm 3.3 - - - - W 9 11 5 6 1019.4 1019.5 0.0
19/11:00pm 3.2 - - - - W 9 13 5 7 1019.5 1019.6 0.0
19/10:30pm 3.5 - - - - W 9 11 5 6 1019.3 1019.4 0.0
19/10:00pm 3.9 - - - - W 9 11 5 6 1019.0 1019.1 0.0
19/09:30pm 5.2 - - - - W 13 15 7 8 1018.8 1018.9 0.0
19/09:00pm 5.3 - - - - W 11 17 6 9 1018.7 1018.8 0.0
19/08:30pm 5.0 - - - - SW 11 13 6 7 1018.4 1018.5 0.0
19/08:00pm 5.9 - - - - SW 11 13 6 7 1018.0 1018.0 0.0
19/07:30pm 7.3 - - - - SW 13 15 7 8 1017.7 1017.7 0.0
19/07:00pm 7.8 - - - - SW 13 13 7 7 1017.3 1017.3 0.0
19/06:30pm 9.3 - - - - SW 11 15 6 8 1017.1 1017.1 0.0
19/06:00pm 11.9 - - - - SW 20 24 11 13 1016.7 1016.8 0.0

Other Formats:

Comma delimited format used in spreadsheet applications
http://www.bom.gov.au/fwo/IDV60801/IDV60801.94920.axf

JavaScript Object Notation format (JSON) in row-major order
http://www.bom.gov.au/fwo/IDV60801/IDV60801.94920.json